sensor_id;sensor_type;location;lat;lon;timestamp;temperature;humidity
48744;DHT22;34538;48.836;9.174;2023-05-10T00:00:32;13.90;99.90
48744;DHT22;34538;48.836;9.174;2023-05-10T00:02:59;13.80;99.90
48744;DHT22;34538;48.836;9.174;2023-05-10T00:05:26;13.80;99.90
48744;DHT22;34538;48.836;9.174;2023-05-10T00:07:52;13.70;99.90
48744;DHT22;34538;48.836;9.174;2023-05-10T00:10:19;13.60;99.90
48744;DHT22;34538;48.836;9.174;2023-05-10T00:12:46;13.50;99.90
48744;DHT22;34538;48.836;9.174;2023-05-10T00:15:14;13.50;99.90
48744;DHT22;34538;48.836;9.174;2023-05-10T00:17:41;13.40;99.90
48744;DHT22;34538;48.836;9.174;2023-05-10T00:20:09;13.40;99.90
48744;DHT22;34538;48.836;9.174;2023-05-10T00:22:36;13.40;99.90
48744;DHT22;34538;48.836;9.174;2023-05-10T00:25:04;13.30;99.90
48744;DHT22;34538;48.836;9.174;2023-05-10T00:27:30;13.30;99.90
48744;DHT22;34538;48.836;9.174;2023-05-10T00:29:57;13.20;99.90
48744;DHT22;34538;48.836;9.174;2023-05-10T00:32:25;13.20;99.90
48744;DHT22;34538;48.836;9.174;2023-05-10T00:34:52;13.20;99.90
48744;DHT22;34538;48.836;9.174;2023-05-10T00:37:19;13.20;99.90
48744;DHT22;34538;48.836;9.174;2023-05-10T00:39:46;13.20;99.90
48744;DHT22;34538;48.836;9.174;2023-05-10T00:42:12;13.10;99.90
48744;DHT22;34538;48.836;9.174;2023-05-10T00:44:40;13.10;99.90
48744;DHT22;34538;48.836;9.174;2023-05-10T00:47:07;13.00;99.90
48744;DHT22;34538;48.836;9.174;2023-05-10T00:49:36;13.00;99.90
48744;DHT22;34538;48.836;9.174;2023-05-10T00:52:03;13.00;99.90
48744;DHT22;34538;48.836;9.174;2023-05-10T00:54:30;12.90;99.90
48744;DHT22;34538;48.836;9.174;2023-05-10T00:56:57;12.90;99.90
48744;DHT22;34538;48.836;9.174;2023-05-10T00:59:24;12.90;99.90
48744;DHT22;34538;48.836;9.174;2023-05-10T01:01:52;12.90;99.90
48744;DHT22;34538;48.836;9.174;2023-05-10T01:04:19;12.90;99.90
48744;DHT22;34538;48.836;9.174;2023-05-10T01:06:52;12.80;99.90
48744;DHT22;34538;48.836;9.174;2023-05-10T01:09:20;12.80;99.90
48744;DHT22;34538;48.836;9.174;2023-05-10T01:11:47;12.80;99.90
48744;DHT22;34538;48.836;9.174;2023-05-10T01:14:15;12.80;99.90
48744;DHT22;34538;48.836;9.174;2023-05-10T01:16:44;12.80;99.90
48744;DHT22;34538;48.836;9.174;2023-05-10T01:19:17;12.80;99.90
48744;DHT22;34538;48.836;9.174;2023-05-10T01:21:49;12.80;99.90
48744;DHT22;34538;48.836;9.174;2023-05-10T01:24:42;12.80;99.90
48744;DHT22;34538;48.836;9.174;2023-05-10T01:27:38;12.80;99.90
48744;DHT22;34538;48.836;9.174;2023-05-10T01:30:32;12.80;99.90
48744;DHT22;34538;48.836;9.174;2023-05-10T01:33:10;12.70;99.90
48744;DHT22;34538;48.836;9.174;2023-05-10T01:35:42;12.80;99.90
48744;DHT22;34538;48.836;9.174;2023-05-10T01:38:16;12.80;99.90
48744;DHT22;34538;48.836;9.174;2023-05-10T01:40:52;12.80;99.90
48744;DHT22;34538;48.836;9.174;2023-05-10T01:43:24;12.80;99.90
48744;DHT22;34538;48.836;9.174;2023-05-10T01:45:59;12.80;99.90
48744;DHT22;34538;48.836;9.174;2023-05-10T01:48:32;12.80;99.90
48744;DHT22;34538;48.836;9.174;2023-05-10T01:50:59;12.80;99.90
48744;DHT22;34538;48.836;9.174;2023-05-10T01:53:27;12.80;99.90
48744;DHT22;34538;48.836;9.174;2023-05-10T01:55:55;12.80;99.90
48744;DHT22;34538;48.836;9.174;2023-05-10T01:58:27;12.80;99.90
48744;DHT22;34538;48.836;9.174;2023-05-10T02:00:54;12.80;99.90
48744;DHT22;34538;48.836;9.174;2023-05-10T02:03:23;12.80;99.90
48744;DHT22;34538;48.836;9.174;2023-05-10T02:05:54;12.80;99.90
48744;DHT22;34538;48.836;9.174;2023-05-10T02:08:22;12.80;99.90
48744;DHT22;34538;48.836;9.174;2023-05-10T02:10:54;12.80;99.90
48744;DHT22;34538;48.836;9.174;2023-05-10T02:13:23;12.80;99.90
48744;DHT22;34538;48.836;9.174;2023-05-10T02:15:51;12.80;99.90
48744;DHT22;34538;48.836;9.174;2023-05-10T02:18:19;12.80;99.90
48744;DHT22;34538;48.836;9.174;2023-05-10T02:20:47;12.80;99.90
48744;DHT22;34538;48.836;9.174;2023-05-10T02:23:17;12.80;99.90
48744;DHT22;34538;48.836;9.174;2023-05-10T02:25:45;12.80;99.90
48744;DHT22;34538;48.836;9.174;2023-05-10T02:28:14;12.70;99.90
48744;DHT22;34538;48.836;9.174;2023-05-10T02:30:42;12.80;99.90
48744;DHT22;34538;48.836;9.174;2023-05-10T02:33:11;12.80;99.90
48744;DHT22;34538;48.836;9.174;2023-05-10T02:35:38;12.80;99.90
48744;DHT22;34538;48.836;9.174;2023-05-10T02:38:06;12.80;99.90
48744;DHT22;34538;48.836;9.174;2023-05-10T02:40:35;12.80;99.90
48744;DHT22;34538;48.836;9.174;2023-05-10T02:43:04;12.80;99.90
48744;DHT22;34538;48.836;9.174;2023-05-10T02:45:34;12.80;99.90
48744;DHT22;34538;48.836;9.174;2023-05-10T02:48:02;12.80;99.90
48744;DHT22;34538;48.836;9.174;2023-05-10T02:50:30;12.80;99.90
48744;DHT22;34538;48.836;9.174;2023-05-10T02:53:00;12.80;99.90
48744;DHT22;34538;48.836;9.174;2023-05-10T02:55:32;12.80;99.90
48744;DHT22;34538;48.836;9.174;2023-05-10T02:58:03;12.80;99.90
48744;DHT22;34538;48.836;9.174;2023-05-10T03:00:31;12.80;99.90
48744;DHT22;34538;48.836;9.174;2023-05-10T03:02:57;12.80;99.90
48744;DHT22;34538;48.836;9.174;2023-05-10T03:05:26;12.80;99.90
48744;DHT22;34538;48.836;9.174;2023-05-10T03:07:53;12.80;99.90
48744;DHT22;34538;48.836;9.174;2023-05-10T03:10:22;12.80;99.90
48744;DHT22;34538;48.836;9.174;2023-05-10T03:13:05;12.80;99.90
48744;DHT22;34538;48.836;9.174;2023-05-10T03:15:40;12.80;99.90
48744;DHT22;34538;48.836;9.174;2023-05-10T03:18:12;12.80;99.90
48744;DHT22;34538;48.836;9.174;2023-05-10T03:20:41;12.80;99.90
48744;DHT22;34538;48.836;9.174;2023-05-10T03:23:13;12.80;99.90
48744;DHT22;34538;48.836;9.174;2023-05-10T03:25:44;12.80;99.90
48744;DHT22;34538;48.836;9.174;2023-05-10T03:28:15;12.80;99.90
48744;DHT22;34538;48.836;9.174;2023-05-10T03:30:43;12.80;99.90
48744;DHT22;34538;48.836;9.174;2023-05-10T03:33:12;12.80;99.90
48744;DHT22;34538;48.836;9.174;2023-05-10T03:35:42;12.90;99.90
48744;DHT22;34538;48.836;9.174;2023-05-10T03:38:11;12.80;99.90
48744;DHT22;34538;48.836;9.174;2023-05-10T03:40:38;12.90;99.90
48744;DHT22;34538;48.836;9.174;2023-05-10T03:43:06;12.80;99.90
48744;DHT22;34538;48.836;9.174;2023-05-10T03:45:34;12.90;99.90
48744;DHT22;34538;48.836;9.174;2023-05-10T03:48:02;12.90;99.90
48744;DHT22;34538;48.836;9.174;2023-05-10T03:50:29;12.90;99.90
48744;DHT22;34538;48.836;9.174;2023-05-10T03:52:56;12.80;99.90
48744;DHT22;34538;48.836;9.174;2023-05-10T03:55:22;12.80;99.90
48744;DHT22;34538;48.836;9.174;2023-05-10T03:57:50;12.80;99.90
48744;DHT22;34538;48.836;9.174;2023-05-10T04:00:17;12.90;99.90
48744;DHT22;34538;48.836;9.174;2023-05-10T04:02:48;12.90;99.90
48744;DHT22;34538;48.836;9.174;2023-05-10T04:05:18;12.90;99.90
48744;DHT22;34538;48.836;9.174;2023-05-10T04:07:45;12.90;99.90
48744;DHT22;34538;48.836;9.174;2023-05-10T04:10:12;12.90;99.90
48744;DHT22;34538;48.836;9.174;2023-05-10T04:12:39;12.90;99.90
48744;DHT22;34538;48.836;9.174;2023-05-10T04:15:07;12.90;99.90
48744;DHT22;34538;48.836;9.174;2023-05-10T04:17:34;12.90;99.90
48744;DHT22;34538;48.836;9.174;2023-05-10T04:20:03;12.90;99.90
48744;DHT22;34538;48.836;9.174;2023-05-10T04:22:30;12.90;99.90
48744;DHT22;34538;48.836;9.174;2023-05-10T04:24:58;12.90;99.90
48744;DHT22;34538;48.836;9.174;2023-05-10T04:27:25;13.00;99.90
48744;DHT22;34538;48.836;9.174;2023-05-10T04:29:51;13.00;99.90
48744;DHT22;34538;48.836;9.174;2023-05-10T04:32:18;13.00;99.90
48744;DHT22;34538;48.836;9.174;2023-05-10T04:34:45;13.00;99.90
48744;DHT22;34538;48.836;9.174;2023-05-10T04:37:14;13.00;99.90
48744;DHT22;34538;48.836;9.174;2023-05-10T04:39:40;13.00;99.90
48744;DHT22;34538;48.836;9.174;2023-05-10T04:42:07;13.00;99.90
48744;DHT22;34538;48.836;9.174;2023-05-10T04:44:34;13.00;99.90
48744;DHT22;34538;48.836;9.174;2023-05-10T04:47:01;13.00;99.90
48744;DHT22;34538;48.836;9.174;2023-05-10T04:49:28;13.10;99.90
48744;DHT22;34538;48.836;9.174;2023-05-10T04:51:55;13.10;99.90
48744;DHT22;34538;48.836;9.174;2023-05-10T04:54:23;13.10;99.90
48744;DHT22;34538;48.836;9.174;2023-05-10T04:56:50;13.10;99.90
48744;DHT22;34538;48.836;9.174;2023-05-10T04:59:17;13.10;99.90
48744;DHT22;34538;48.836;9.174;2023-05-10T05:01:44;13.10;99.90
48744;DHT22;34538;48.836;9.174;2023-05-10T05:04:11;13.10;99.90
48744;DHT22;34538;48.836;9.174;2023-05-10T05:06:38;13.20;99.90
48744;DHT22;34538;48.836;9.174;2023-05-10T05:09:04;13.20;99.90
48744;DHT22;34538;48.836;9.174;2023-05-10T05:11:33;13.20;99.90
48744;DHT22;34538;48.836;9.174;2023-05-10T05:13:59;13.30;99.90
48744;DHT22;34538;48.836;9.174;2023-05-10T05:16:26;13.30;99.90
48744;DHT22;34538;48.836;9.174;2023-05-10T05:18:53;13.40;99.90
48744;DHT22;34538;48.836;9.174;2023-05-10T05:21:20;13.40;99.90
48744;DHT22;34538;48.836;9.174;2023-05-10T05:23:47;13.50;99.90
48744;DHT22;34538;48.836;9.174;2023-05-10T05:26:14;13.60;99.90
48744;DHT22;34538;48.836;9.174;2023-05-10T05:28:42;13.60;99.90
48744;DHT22;34538;48.836;9.174;2023-05-10T05:31:09;13.70;99.90
48744;DHT22;34538;48.836;9.174;2023-05-10T05:33:36;13.80;99.90
48744;DHT22;34538;48.836;9.174;2023-05-10T05:36:04;13.80;99.90
48744;DHT22;34538;48.836;9.174;2023-05-10T05:38:31;13.80;99.90
48744;DHT22;34538;48.836;9.174;2023-05-10T05:40:58;13.90;99.90
48744;DHT22;34538;48.836;9.174;2023-05-10T05:43:25;13.90;99.90
48744;DHT22;34538;48.836;9.174;2023-05-10T05:45:54;13.90;99.90
48744;DHT22;34538;48.836;9.174;2023-05-10T05:48:21;13.90;99.90
48744;DHT22;34538;48.836;9.174;2023-05-10T05:50:48;14.00;99.90
48744;DHT22;34538;48.836;9.174;2023-05-10T05:53:15;14.10;99.90
48744;DHT22;34538;48.836;9.174;2023-05-10T05:55:51;14.10;99.90
48744;DHT22;34538;48.836;9.174;2023-05-10T05:58:18;14.20;99.90
48744;DHT22;34538;48.836;9.174;2023-05-10T06:00:45;14.20;99.90
48744;DHT22;34538;48.836;9.174;2023-05-10T06:03:13;14.20;99.90
48744;DHT22;34538;48.836;9.174;2023-05-10T06:05:40;14.30;99.90
48744;DHT22;34538;48.836;9.174;2023-05-10T06:08:07;14.30;99.90
48744;DHT22;34538;48.836;9.174;2023-05-10T06:10:33;14.30;99.90
48744;DHT22;34538;48.836;9.174;2023-05-10T06:13:00;14.30;99.90
48744;DHT22;34538;48.836;9.174;2023-05-10T06:15:27;14.40;99.90
48744;DHT22;34538;48.836;9.174;2023-05-10T06:17:54;14.40;99.90
48744;DHT22;34538;48.836;9.174;2023-05-10T06:20:23;14.40;99.90
48744;DHT22;34538;48.836;9.174;2023-05-10T06:22:50;14.50;99.90
48744;DHT22;34538;48.836;9.174;2023-05-10T06:25:17;14.50;99.90
48744;DHT22;34538;48.836;9.174;2023-05-10T06:27:44;14.50;99.90
48744;DHT22;34538;48.836;9.174;2023-05-10T06:30:11;14.50;99.90
48744;DHT22;34538;48.836;9.174;2023-05-10T06:32:40;14.50;99.90
48744;DHT22;34538;48.836;9.174;2023-05-10T06:35:09;14.50;99.90
48744;DHT22;34538;48.836;9.174;2023-05-10T06:37:37;14.60;99.90
48744;DHT22;34538;48.836;9.174;2023-05-10T06:40:06;14.60;99.90
48744;DHT22;34538;48.836;9.174;2023-05-10T06:42:33;14.60;99.90
48744;DHT22;34538;48.836;9.174;2023-05-10T06:45:02;14.60;99.90
48744;DHT22;34538;48.836;9.174;2023-05-10T06:47:29;14.70;99.90
48744;DHT22;34538;48.836;9.174;2023-05-10T06:49:55;14.60;99.90
48744;DHT22;34538;48.836;9.174;2023-05-10T06:52:22;14.70;99.90
48744;DHT22;34538;48.836;9.174;2023-05-10T06:54:51;14.70;99.90
48744;DHT22;34538;48.836;9.174;2023-05-10T06:57:18;14.80;99.90
48744;DHT22;34538;48.836;9.174;2023-05-10T06:59:45;14.80;99.90
48744;DHT22;34538;48.836;9.174;2023-05-10T07:02:11;14.80;99.90
48744;DHT22;34538;48.836;9.174;2023-05-10T07:04:40;14.90;99.90
48744;DHT22;34538;48.836;9.174;2023-05-10T07:07:07;15.00;99.90
48744;DHT22;34538;48.836;9.174;2023-05-10T07:09:33;15.00;99.90
48744;DHT22;34538;48.836;9.174;2023-05-10T07:12:02;15.00;99.90
48744;DHT22;34538;48.836;9.174;2023-05-10T07:14:29;15.10;99.90
48744;DHT22;34538;48.836;9.174;2023-05-10T07:16:55;15.20;99.90
48744;DHT22;34538;48.836;9.174;2023-05-10T07:19:22;15.20;99.90
48744;DHT22;34538;48.836;9.174;2023-05-10T07:21:49;15.20;99.90
48744;DHT22;34538;48.836;9.174;2023-05-10T07:24:16;15.30;99.90
48744;DHT22;34538;48.836;9.174;2023-05-10T07:26:43;15.30;99.90
48744;DHT22;34538;48.836;9.174;2023-05-10T07:29:11;15.30;99.90
48744;DHT22;34538;48.836;9.174;2023-05-10T07:31:38;15.40;99.90
48744;DHT22;34538;48.836;9.174;2023-05-10T07:34:07;15.40;99.90
48744;DHT22;34538;48.836;9.174;2023-05-10T07:36:34;15.40;99.90
48744;DHT22;34538;48.836;9.174;2023-05-10T07:39:01;15.50;99.90
48744;DHT22;34538;48.836;9.174;2023-05-10T07:41:28;15.50;99.90
48744;DHT22;34538;48.836;9.174;2023-05-10T07:43:55;15.60;99.90
48744;DHT22;34538;48.836;9.174;2023-05-10T07:46:23;15.70;99.90
48744;DHT22;34538;48.836;9.174;2023-05-10T07:48:50;15.70;99.90
48744;DHT22;34538;48.836;9.174;2023-05-10T07:51:17;15.80;99.90
48744;DHT22;34538;48.836;9.174;2023-05-10T07:53:43;15.90;99.90
48744;DHT22;34538;48.836;9.174;2023-05-10T07:56:21;15.90;99.90
48744;DHT22;34538;48.836;9.174;2023-05-10T07:58:48;16.00;99.90
48744;DHT22;34538;48.836;9.174;2023-05-10T08:01:15;16.10;99.90
48744;DHT22;34538;48.836;9.174;2023-05-10T08:03:43;16.10;99.90
48744;DHT22;34538;48.836;9.174;2023-05-10T08:06:10;16.10;99.90
48744;DHT22;34538;48.836;9.174;2023-05-10T08:08:37;16.10;99.90
48744;DHT22;34538;48.836;9.174;2023-05-10T08:11:04;16.10;99.90
48744;DHT22;34538;48.836;9.174;2023-05-10T08:13:31;16.00;99.90
48744;DHT22;34538;48.836;9.174;2023-05-10T08:15:58;16.00;99.90
48744;DHT22;34538;48.836;9.174;2023-05-10T08:18:26;16.00;99.90
48744;DHT22;34538;48.836;9.174;2023-05-10T08:20:54;15.90;99.90
48744;DHT22;34538;48.836;9.174;2023-05-10T08:23:21;15.90;99.90
48744;DHT22;34538;48.836;9.174;2023-05-10T08:25:48;15.90;99.90
48744;DHT22;34538;48.836;9.174;2023-05-10T08:28:14;16.00;99.90
48744;DHT22;34538;48.836;9.174;2023-05-10T08:30:41;16.00;99.90
48744;DHT22;34538;48.836;9.174;2023-05-10T08:33:08;16.00;99.90
48744;DHT22;34538;48.836;9.174;2023-05-10T08:35:35;16.00;99.90
48744;DHT22;34538;48.836;9.174;2023-05-10T08:38:03;16.00;99.90
48744;DHT22;34538;48.836;9.174;2023-05-10T08:40:30;16.00;99.90
48744;DHT22;34538;48.836;9.174;2023-05-10T08:43:04;16.00;99.90
48744;DHT22;34538;48.836;9.174;2023-05-10T08:45:33;16.00;99.90
48744;DHT22;34538;48.836;9.174;2023-05-10T08:48:01;16.00;99.90
48744;DHT22;34538;48.836;9.174;2023-05-10T08:50:29;16.00;99.90
48744;DHT22;34538;48.836;9.174;2023-05-10T08:52:59;16.10;99.90
48744;DHT22;34538;48.836;9.174;2023-05-10T08:55:28;16.20;99.90
48744;DHT22;34538;48.836;9.174;2023-05-10T08:57:55;16.30;99.90
48744;DHT22;34538;48.836;9.174;2023-05-10T09:00:22;16.40;99.90
48744;DHT22;34538;48.836;9.174;2023-05-10T09:02:50;16.50;99.90
48744;DHT22;34538;48.836;9.174;2023-05-10T09:05:17;16.60;99.90
48744;DHT22;34538;48.836;9.174;2023-05-10T09:07:44;16.70;99.90
48744;DHT22;34538;48.836;9.174;2023-05-10T09:10:11;16.70;99.90
48744;DHT22;34538;48.836;9.174;2023-05-10T09:12:40;16.80;99.90
48744;DHT22;34538;48.836;9.174;2023-05-10T09:15:10;16.90;99.90
48744;DHT22;34538;48.836;9.174;2023-05-10T09:17:38;16.90;99.90
48744;DHT22;34538;48.836;9.174;2023-05-10T09:20:07;16.90;99.90
48744;DHT22;34538;48.836;9.174;2023-05-10T09:22:34;17.00;99.90
48744;DHT22;34538;48.836;9.174;2023-05-10T09:25:05;16.90;99.90
48744;DHT22;34538;48.836;9.174;2023-05-10T09:27:32;16.90;99.90
48744;DHT22;34538;48.836;9.174;2023-05-10T09:30:00;16.90;99.90
48744;DHT22;34538;48.836;9.174;2023-05-10T09:32:36;16.90;99.90
48744;DHT22;34538;48.836;9.174;2023-05-10T09:35:07;16.90;99.90
48744;DHT22;34538;48.836;9.174;2023-05-10T09:37:34;17.00;99.90
48744;DHT22;34538;48.836;9.174;2023-05-10T09:40:05;17.00;99.90
48744;DHT22;34538;48.836;9.174;2023-05-10T09:42:33;17.10;99.90
48744;DHT22;34538;48.836;9.174;2023-05-10T09:45:03;17.20;99.90
48744;DHT22;34538;48.836;9.174;2023-05-10T09:47:32;17.30;99.90
48744;DHT22;34538;48.836;9.174;2023-05-10T09:49:59;17.30;99.90
48744;DHT22;34538;48.836;9.174;2023-05-10T09:52:29;17.20;99.90
48744;DHT22;34538;48.836;9.174;2023-05-10T09:54:56;17.10;99.90
48744;DHT22;34538;48.836;9.174;2023-05-10T09:57:24;17.10;99.90
48744;DHT22;34538;48.836;9.174;2023-05-10T09:59:51;17.00;99.90
48744;DHT22;34538;48.836;9.174;2023-05-10T10:02:21;16.90;99.90
48744;DHT22;34538;48.836;9.174;2023-05-10T10:04:55;16.80;99.90
48744;DHT22;34538;48.836;9.174;2023-05-10T10:07:23;16.80;99.90
48744;DHT22;34538;48.836;9.174;2023-05-10T10:09:51;16.80;99.90
48744;DHT22;34538;48.836;9.174;2023-05-10T10:12:18;16.80;99.90
48744;DHT22;34538;48.836;9.174;2023-05-10T10:14:46;16.80;99.90
48744;DHT22;34538;48.836;9.174;2023-05-10T10:17:15;16.80;99.90
48744;DHT22;34538;48.836;9.174;2023-05-10T10:19:43;16.70;99.90
48744;DHT22;34538;48.836;9.174;2023-05-10T10:22:11;16.70;99.90
48744;DHT22;34538;48.836;9.174;2023-05-10T10:24:38;16.70;99.90
48744;DHT22;34538;48.836;9.174;2023-05-10T10:27:19;16.60;99.90
48744;DHT22;34538;48.836;9.174;2023-05-10T10:29:58;16.60;99.90
48744;DHT22;34538;48.836;9.174;2023-05-10T10:32:33;16.60;99.90
48744;DHT22;34538;48.836;9.174;2023-05-10T10:35:04;16.60;99.90
48744;DHT22;34538;48.836;9.174;2023-05-10T10:37:44;16.70;99.90
48744;DHT22;34538;48.836;9.174;2023-05-10T10:40:25;16.80;99.90
48744;DHT22;34538;48.836;9.174;2023-05-10T10:42:52;16.90;99.90
48744;DHT22;34538;48.836;9.174;2023-05-10T10:45:21;16.90;99.90
48744;DHT22;34538;48.836;9.174;2023-05-10T10:47:48;17.00;99.90
48744;DHT22;34538;48.836;9.174;2023-05-10T10:50:16;17.00;99.90
48744;DHT22;34538;48.836;9.174;2023-05-10T10:52:44;17.10;99.90
48744;DHT22;34538;48.836;9.174;2023-05-10T10:55:12;17.20;99.90
48744;DHT22;34538;48.836;9.174;2023-05-10T10:57:45;17.20;99.90
48744;DHT22;34538;48.836;9.174;2023-05-10T11:00:20;17.30;99.90
48744;DHT22;34538;48.836;9.174;2023-05-10T11:02:49;17.30;99.90
48744;DHT22;34538;48.836;9.174;2023-05-10T11:08:17;17.50;99.90
48744;DHT22;34538;48.836;9.174;2023-05-10T11:11:03;17.50;99.90
48744;DHT22;34538;48.836;9.174;2023-05-10T11:13:34;17.50;99.90
48744;DHT22;34538;48.836;9.174;2023-05-10T11:16:14;17.50;99.90
48744;DHT22;34538;48.836;9.174;2023-05-10T11:18:58;17.50;99.90
48744;DHT22;34538;48.836;9.174;2023-05-10T11:21:28;17.60;99.90
48744;DHT22;34538;48.836;9.174;2023-05-10T11:23:56;17.60;99.90
48744;DHT22;34538;48.836;9.174;2023-05-10T11:26:24;17.60;99.90
48744;DHT22;34538;48.836;9.174;2023-05-10T11:28:52;17.70;99.90
48744;DHT22;34538;48.836;9.174;2023-05-10T11:31:22;17.80;99.90
48744;DHT22;34538;48.836;9.174;2023-05-10T11:33:50;17.80;99.90
48744;DHT22;34538;48.836;9.174;2023-05-10T11:36:19;17.80;99.90
48744;DHT22;34538;48.836;9.174;2023-05-10T11:38:48;17.80;99.90
48744;DHT22;34538;48.836;9.174;2023-05-10T11:41:16;17.80;99.90
48744;DHT22;34538;48.836;9.174;2023-05-10T11:43:45;17.80;99.90
48744;DHT22;34538;48.836;9.174;2023-05-10T11:46:14;17.80;99.90
48744;DHT22;34538;48.836;9.174;2023-05-10T11:48:42;17.90;99.90
48744;DHT22;34538;48.836;9.174;2023-05-10T11:51:10;17.90;99.90
48744;DHT22;34538;48.836;9.174;2023-05-10T11:53:37;18.00;99.90
48744;DHT22;34538;48.836;9.174;2023-05-10T11:56:07;18.00;99.90
48744;DHT22;34538;48.836;9.174;2023-05-10T11:58:35;17.90;99.90
48744;DHT22;34538;48.836;9.174;2023-05-10T12:01:03;17.80;99.90
48744;DHT22;34538;48.836;9.174;2023-05-10T12:03:30;17.80;99.90
48744;DHT22;34538;48.836;9.174;2023-05-10T12:05:58;17.70;99.90
48744;DHT22;34538;48.836;9.174;2023-05-10T12:08:27;17.70;99.90
48744;DHT22;34538;48.836;9.174;2023-05-10T12:11:04;17.60;99.90
48744;DHT22;34538;48.836;9.174;2023-05-10T12:13:37;17.60;99.90
48744;DHT22;34538;48.836;9.174;2023-05-10T12:16:13;17.50;99.90
48744;DHT22;34538;48.836;9.174;2023-05-10T12:18:40;17.40;99.90
48744;DHT22;34538;48.836;9.174;2023-05-10T12:21:10;17.20;99.90
48744;DHT22;34538;48.836;9.174;2023-05-10T12:23:37;17.10;99.90
48744;DHT22;34538;48.836;9.174;2023-05-10T12:26:05;17.10;99.90
48744;DHT22;34538;48.836;9.174;2023-05-10T12:28:33;17.00;99.90
48744;DHT22;34538;48.836;9.174;2023-05-10T12:31:01;17.00;99.90
48744;DHT22;34538;48.836;9.174;2023-05-10T12:33:35;17.00;99.90
48744;DHT22;34538;48.836;9.174;2023-05-10T12:36:05;17.00;99.90
48744;DHT22;34538;48.836;9.174;2023-05-10T12:38:34;17.10;99.90
48744;DHT22;34538;48.836;9.174;2023-05-10T12:41:02;17.20;99.90
48744;DHT22;34538;48.836;9.174;2023-05-10T12:43:29;17.30;99.90
48744;DHT22;34538;48.836;9.174;2023-05-10T12:45:58;17.40;99.90
48744;DHT22;34538;48.836;9.174;2023-05-10T12:48:25;17.50;99.90
48744;DHT22;34538;48.836;9.174;2023-05-10T12:50:54;17.50;99.90
48744;DHT22;34538;48.836;9.174;2023-05-10T12:53:21;17.50;99.90
48744;DHT22;34538;48.836;9.174;2023-05-10T12:55:48;17.60;99.90
48744;DHT22;34538;48.836;9.174;2023-05-10T12:58:14;17.60;99.90
48744;DHT22;34538;48.836;9.174;2023-05-10T13:00:41;17.70;99.90
48744;DHT22;34538;48.836;9.174;2023-05-10T13:03:10;17.60;99.90
48744;DHT22;34538;48.836;9.174;2023-05-10T13:05:37;17.60;99.90
48744;DHT22;34538;48.836;9.174;2023-05-10T13:08:04;17.60;99.90
48744;DHT22;34538;48.836;9.174;2023-05-10T13:10:31;17.70;99.90
48744;DHT22;34538;48.836;9.174;2023-05-10T13:12:58;17.80;99.90
48744;DHT22;34538;48.836;9.174;2023-05-10T13:15:26;17.80;99.90
48744;DHT22;34538;48.836;9.174;2023-05-10T13:17:53;17.80;99.90
48744;DHT22;34538;48.836;9.174;2023-05-10T13:20:21;17.80;99.90
48744;DHT22;34538;48.836;9.174;2023-05-10T13:22:48;17.70;99.90
48744;DHT22;34538;48.836;9.174;2023-05-10T13:25:15;17.60;99.90
48744;DHT22;34538;48.836;9.174;2023-05-10T13:27:42;17.60;99.90
48744;DHT22;34538;48.836;9.174;2023-05-10T13:30:09;17.50;99.90
48744;DHT22;34538;48.836;9.174;2023-05-10T13:32:37;17.40;99.90
48744;DHT22;34538;48.836;9.174;2023-05-10T13:35:04;17.40;99.90
48744;DHT22;34538;48.836;9.174;2023-05-10T13:37:33;17.40;99.90
48744;DHT22;34538;48.836;9.174;2023-05-10T13:40:03;17.40;99.90
48744;DHT22;34538;48.836;9.174;2023-05-10T13:42:30;17.40;99.90
48744;DHT22;34538;48.836;9.174;2023-05-10T13:44:58;17.40;99.90
48744;DHT22;34538;48.836;9.174;2023-05-10T13:47:25;17.40;99.90
48744;DHT22;34538;48.836;9.174;2023-05-10T13:49:52;17.40;99.90
48744;DHT22;34538;48.836;9.174;2023-05-10T13:52:19;17.40;99.90
48744;DHT22;34538;48.836;9.174;2023-05-10T13:54:48;17.40;99.90
48744;DHT22;34538;48.836;9.174;2023-05-10T13:57:14;17.50;99.90
48744;DHT22;34538;48.836;9.174;2023-05-10T13:59:42;17.50;99.90
48744;DHT22;34538;48.836;9.174;2023-05-10T14:02:09;17.50;99.90
48744;DHT22;34538;48.836;9.174;2023-05-10T14:04:36;17.50;99.90
48744;DHT22;34538;48.836;9.174;2023-05-10T14:07:03;17.40;99.90
48744;DHT22;34538;48.836;9.174;2023-05-10T14:09:30;17.40;99.90
48744;DHT22;34538;48.836;9.174;2023-05-10T14:11:58;17.30;99.90
48744;DHT22;34538;48.836;9.174;2023-05-10T14:14:25;17.30;99.90
48744;DHT22;34538;48.836;9.174;2023-05-10T14:16:52;17.30;99.90
48744;DHT22;34538;48.836;9.174;2023-05-10T14:19:18;17.30;99.90
48744;DHT22;34538;48.836;9.174;2023-05-10T14:21:45;17.30;99.90
48744;DHT22;34538;48.836;9.174;2023-05-10T14:24:12;17.30;99.90
48744;DHT22;34538;48.836;9.174;2023-05-10T14:26:39;17.30;99.90
48744;DHT22;34538;48.836;9.174;2023-05-10T14:29:07;17.40;99.90
48744;DHT22;34538;48.836;9.174;2023-05-10T14:31:34;17.40;99.90
48744;DHT22;34538;48.836;9.174;2023-05-10T14:34:01;17.50;99.90
48744;DHT22;34538;48.836;9.174;2023-05-10T14:36:28;17.50;99.90
48744;DHT22;34538;48.836;9.174;2023-05-10T14:38:55;17.50;99.90
48744;DHT22;34538;48.836;9.174;2023-05-10T14:41:22;17.60;99.90
48744;DHT22;34538;48.836;9.174;2023-05-10T14:43:50;17.60;99.90
48744;DHT22;34538;48.836;9.174;2023-05-10T14:46:18;17.60;99.90
48744;DHT22;34538;48.836;9.174;2023-05-10T14:48:45;17.70;99.90
48744;DHT22;34538;48.836;9.174;2023-05-10T14:51:12;17.70;99.90
48744;DHT22;34538;48.836;9.174;2023-05-10T14:53:38;17.80;99.90
48744;DHT22;34538;48.836;9.174;2023-05-10T14:56:05;17.80;99.90
48744;DHT22;34538;48.836;9.174;2023-05-10T14:58:32;17.80;99.90
48744;DHT22;34538;48.836;9.174;2023-05-10T15:00:59;17.70;99.90
48744;DHT22;34538;48.836;9.174;2023-05-10T15:03:27;17.70;99.90
48744;DHT22;34538;48.836;9.174;2023-05-10T15:05:54;17.60;99.90
48744;DHT22;34538;48.836;9.174;2023-05-10T15:08:21;17.60;99.90
48744;DHT22;34538;48.836;9.174;2023-05-10T15:10:49;17.50;99.90
48744;DHT22;34538;48.836;9.174;2023-05-10T15:13:16;17.50;99.90
48744;DHT22;34538;48.836;9.174;2023-05-10T15:15:43;17.50;99.90
48744;DHT22;34538;48.836;9.174;2023-05-10T15:18:09;17.50;99.90
48744;DHT22;34538;48.836;9.174;2023-05-10T15:20:38;17.50;99.90
48744;DHT22;34538;48.836;9.174;2023-05-10T15:23:04;17.50;99.90
48744;DHT22;34538;48.836;9.174;2023-05-10T15:25:31;17.50;99.90
48744;DHT22;34538;48.836;9.174;2023-05-10T15:28:00;17.50;99.90
48744;DHT22;34538;48.836;9.174;2023-05-10T15:30:27;17.40;99.90
48744;DHT22;34538;48.836;9.174;2023-05-10T15:32:54;17.50;99.90
48744;DHT22;34538;48.836;9.174;2023-05-10T15:35:21;17.40;99.90
48744;DHT22;34538;48.836;9.174;2023-05-10T15:37:49;17.40;99.90
48744;DHT22;34538;48.836;9.174;2023-05-10T15:40:16;17.30;99.90